createdAt,value
2019-03-30T00:01:56.784Z,5.96
2019-03-30T00:07:56.715Z,5.80
2019-03-30T00:13:58.946Z,5.74
2019-03-30T00:23:13.271Z,5.74
2019-03-30T00:29:01.414Z,5.57
2019-03-30T00:34:39.122Z,5.29
2019-03-30T00:40:27.169Z,5.37
2019-03-30T00:46:15.305Z,5.15
2019-03-30T00:52:03.649Z,5.20
2019-03-30T00:57:51.397Z,4.91
2019-03-30T01:03:39.939Z,4.87
2019-03-30T01:09:30.553Z,4.57
2019-03-30T01:15:19.488Z,4.30
2019-03-30T01:24:32.121Z,4.25
2019-03-30T01:30:33.042Z,3.59
2019-03-30T01:36:32.610Z,3.58
2019-03-30T01:42:33.973Z,3.41
2019-03-30T01:58:11.101Z,3.12
2019-03-30T02:03:59.016Z,3.23
2019-03-30T02:09:36.946Z,3.42
2019-03-30T02:15:25.696Z,3.66
2019-03-30T02:30:57.110Z,3.60
2019-03-30T02:36:56.942Z,3.75
2019-03-30T02:42:57.229Z,3.66
2019-03-30T02:48:58.155Z,3.74
2019-03-30T02:54:57.958Z,3.67
2019-03-30T03:00:57.968Z,3.50
2019-03-30T03:06:57.765Z,3.48
2019-03-30T03:12:58.657Z,3.02
2019-03-30T03:18:59.309Z,2.52
2019-03-30T03:28:27.756Z,2.63
2019-03-30T03:34:15.732Z,2.39
2019-03-30T03:39:52.995Z,2.32
2019-03-30T03:45:42.469Z,2.37
2019-03-30T03:51:31.223Z,2.48
2019-03-30T03:57:19.781Z,2.75
2019-03-30T04:03:08.853Z,2.88
2019-03-30T04:08:57.810Z,2.98
2019-03-30T04:14:48.901Z,3.12
2019-03-30T04:20:37.051Z,3.24
2019-03-30T04:29:49.527Z,3.66
2019-03-30T04:35:50.057Z,3.77
2019-03-30T04:41:49.780Z,3.97
2019-03-30T04:47:49.854Z,4.06
2019-03-30T04:53:50.171Z,4.41
2019-03-30T04:59:50.906Z,4.56
2019-03-30T05:05:51.416Z,4.60
2019-03-30T05:11:52.133Z,4.86
2019-03-30T05:17:52.239Z,5.20
2019-03-30T05:23:52.143Z,5.44
2019-03-30T05:33:11.403Z,6.11
2019-03-30T05:39:00.764Z,6.41
2019-03-30T05:44:37.553Z,6.67
2019-03-30T05:50:25.495Z,7.07
2019-03-30T05:56:13.625Z,7.36
2019-03-30T06:02:01.770Z,7.38
2019-03-30T06:07:49.706Z,7.38
2019-03-30T06:13:38.060Z,7.69
2019-03-30T06:19:26.506Z,9.29
2019-03-30T06:25:14.379Z,14.37
2019-03-30T06:34:30.102Z,17.65
2019-03-30T06:40:30.834Z,16.15
2019-03-30T06:46:31.541Z,23.89
2019-03-30T06:52:31.563Z,20.85
2019-03-30T06:58:32.175Z,20.91
2019-03-30T07:04:32.181Z,22.88
2019-03-30T07:10:32.083Z,24.57
2019-03-30T07:16:32.805Z,22.60
2019-03-30T07:22:34.128Z,22.78
2019-03-30T07:28:34.971Z,25.29
2019-03-30T07:37:51.753Z,24.49
2019-03-30T07:43:40.302Z,24.92
2019-03-30T07:49:16.890Z,27.72
2019-03-30T07:55:06.372Z,30.58
2019-03-30T08:00:55.428Z,30.43
2019-03-30T08:06:43.269Z,31.27
2019-03-30T08:12:31.513Z,31.24
2019-03-30T08:18:19.857Z,30.60
2019-03-30T08:24:08.615Z,22.03
2019-03-30T08:29:57.168Z,25.36
2019-03-30T08:39:11.091Z,20.01
2019-03-30T11:09:33.889Z,19.01
2019-03-30T11:12:03.446Z,17.91
2019-03-30T11:14:33.024Z,17.99
2019-03-30T11:17:02.633Z,17.25
2019-03-30T11:19:32.270Z,17.50
2019-03-30T11:22:03.340Z,18.04
2019-03-30T11:24:33.134Z,18.49
2019-03-30T11:27:02.770Z,17.85
2019-03-30T11:29:32.291Z,17.20
2019-03-30T11:32:01.819Z,17.24
2019-03-30T11:34:31.457Z,16.51
2019-03-30T11:37:02.750Z,16.36
2019-03-30T11:39:34.244Z,16.52
2019-03-30T11:42:03.203Z,14.83
2019-03-30T11:44:32.714Z,15.37
2019-03-30T11:47:02.382Z,15.16
2019-03-30T11:49:32.069Z,15.64
2019-03-30T11:52:01.877Z,17.10
2019-03-30T11:54:31.625Z,18.23
2019-03-30T11:57:01.216Z,19.07
2019-03-30T11:59:30.761Z,19.65
2019-03-30T12:02:01.183Z,20.14
2019-03-30T12:04:30.660Z,20.26
2019-03-30T12:07:00.215Z,20.81
2019-03-30T12:09:29.684Z,21.17
2019-03-30T12:11:59.171Z,22.07
2019-03-30T12:14:28.596Z,22.48
2019-03-30T12:16:58.161Z,31.87
2019-03-30T12:19:27.770Z,33.08
2019-03-30T12:21:57.264Z,35.49
2019-03-30T12:24:26.815Z,39.91
2019-03-30T12:26:56.350Z,37.15
2019-03-30T12:29:25.849Z,38.55
2019-03-30T12:31:55.250Z,35.01
2019-03-30T12:34:24.750Z,36.25
2019-03-30T12:36:55.760Z,36.17
2019-03-30T12:41:56.066Z,36.22
2019-03-30T12:44:25.816Z,40.45
2019-03-30T12:46:55.573Z,41.58
2019-03-30T12:49:25.230Z,41.77
2019-03-30T12:51:54.911Z,41.48
2019-03-30T12:54:24.534Z,40.88
2019-03-30T12:56:54.154Z,42.82
2019-03-30T12:59:23.683Z,40.07
2019-03-30T13:01:53.172Z,39.62
2019-03-30T13:04:22.842Z,40.41
2019-03-30T13:06:52.671Z,41.50
2019-03-30T13:09:21.697Z,41.33
2019-03-30T13:11:51.317Z,40.13
2019-03-30T13:14:20.951Z,38.84
2019-03-30T13:16:50.575Z,32.25
2019-03-30T13:19:20.226Z,34.29
2019-03-30T13:21:53.051Z,32.90
2019-03-30T13:24:21.298Z,32.53
2019-03-30T13:26:50.942Z,29.96
2019-03-30T13:29:20.657Z,31.76
2019-03-30T13:31:50.388Z,34.21
2019-03-30T13:34:20.017Z,34.38
2019-03-30T13:36:49.754Z,33.23
2019-03-30T13:39:19.472Z,33.59
2019-03-30T13:41:49.097Z,34.06
2019-03-30T13:44:18.733Z,32.19
2019-03-30T13:46:48.481Z,30.02
2019-03-30T13:49:18.188Z,30.52
2019-03-30T13:51:47.821Z,30.86
2019-03-30T13:54:17.557Z,30.07
2019-03-30T13:56:47.380Z,30.16
2019-03-30T13:59:17.120Z,30.73
2019-03-30T14:01:46.725Z,30.56
2019-03-30T14:04:17.390Z,29.78
2019-03-30T14:06:47.132Z,28.50
2019-03-30T14:09:16.849Z,27.12
2019-03-30T14:11:46.637Z,25.21
2019-03-30T14:14:16.417Z,25.34
2019-03-30T14:16:46.155Z,24.22
2019-03-30T14:19:15.976Z,24.44
2019-03-30T14:21:45.627Z,25.10
2019-03-30T14:24:15.531Z,26.03
2019-03-30T14:26:45.159Z,26.77
2019-03-30T14:29:14.793Z,26.89
2019-03-30T14:31:44.360Z,26.05
2019-03-30T14:34:14.053Z,25.45
2019-03-30T14:36:43.778Z,25.69
2019-03-30T14:39:13.410Z,24.85
2019-03-30T14:41:43.138Z,24.61
2019-03-30T14:44:12.876Z,24.28
2019-03-30T14:46:42.599Z,23.98
2019-03-30T14:49:12.125Z,23.52
2019-03-30T14:51:41.970Z,23.20
2019-03-30T14:54:11.587Z,22.98
2019-03-30T14:56:45.790Z,22.26
2019-03-30T14:59:14.425Z,22.13
2019-03-30T15:01:44.549Z,22.08
2019-03-30T15:04:14.167Z,21.92
2019-03-30T15:06:44.020Z,21.55
2019-03-30T15:09:13.758Z,21.19
2019-03-30T15:11:43.582Z,20.65
2019-03-30T15:14:13.316Z,20.29
2019-03-30T15:16:43.047Z,20.04
2019-03-30T15:19:12.669Z,19.65
2019-03-30T15:21:42.237Z,19.31
2019-03-30T15:24:11.833Z,19.02
2019-03-30T15:26:41.564Z,18.73
2019-03-30T15:29:11.602Z,18.31
2019-03-30T15:31:41.217Z,18.05
2019-03-30T15:34:10.954Z,17.49
2019-03-30T15:36:40.532Z,17.08
2019-03-30T15:39:10.208Z,16.82
2019-03-30T15:41:39.826Z,16.61
2019-03-30T15:44:09.556Z,16.34
2019-03-30T15:46:39.191Z,15.73
2019-03-30T15:49:09.801Z,15.06
2019-03-30T15:51:39.570Z,14.65
2019-03-30T15:54:09.207Z,14.26
2019-03-30T15:56:38.945Z,13.97
2019-03-30T15:59:08.788Z,13.58
2019-03-30T16:01:38.504Z,13.19
2019-03-30T16:04:08.228Z,12.97
2019-03-30T16:06:37.986Z,12.92
2019-03-30T16:09:07.893Z,12.72
2019-03-30T16:11:37.466Z,12.47
2019-03-30T16:14:07.247Z,12.32
2019-03-30T16:16:36.888Z,12.11
2019-03-30T16:19:06.432Z,11.89
2019-03-30T16:21:36.144Z,11.72
2019-03-30T16:24:06.068Z,11.67
2019-03-30T16:26:42.282Z,11.53
2019-03-30T16:29:08.082Z,11.34
2019-03-30T16:31:38.950Z,11.26
2019-03-30T16:34:08.574Z,11.13
2019-03-30T16:36:38.305Z,10.91
2019-03-30T16:39:08.137Z,10.76
2019-03-30T16:41:37.864Z,10.69
2019-03-30T16:44:07.407Z,10.49
2019-03-30T16:46:37.116Z,10.35
2019-03-30T16:49:06.749Z,10.20
2019-03-30T16:51:36.343Z,10.00
2019-03-30T16:54:06.334Z,9.90
2019-03-30T16:56:35.926Z,9.77
2019-03-30T16:59:05.972Z,9.80
2019-03-30T17:01:35.796Z,9.87
2019-03-30T17:04:05.431Z,9.84
2019-03-30T17:06:35.177Z,9.65
2019-03-30T17:09:06.488Z,9.49
2019-03-30T17:11:36.250Z,9.35
2019-03-30T17:14:05.979Z,9.17
2019-03-30T17:16:35.613Z,9.02
2019-03-30T17:19:05.142Z,8.80
2019-03-30T17:21:34.980Z,8.67
2019-03-30T17:24:04.700Z,8.73
2019-03-30T17:26:34.283Z,8.68
2019-03-30T17:29:05.590Z,8.56
2019-03-30T17:31:35.430Z,8.73
2019-03-30T17:34:05.046Z,8.68
2019-03-30T17:36:34.778Z,8.70
2019-03-30T17:39:06.795Z,8.69
2019-03-30T17:41:36.487Z,8.59
2019-03-30T17:44:06.156Z,8.48
2019-03-30T17:46:35.862Z,8.44
2019-03-30T17:49:05.607Z,8.40
2019-03-30T17:51:35.419Z,8.33
2019-03-30T17:54:06.890Z,8.15
2019-03-30T17:56:36.619Z,8.12
2019-03-30T17:59:08.545Z,7.98
2019-03-30T18:01:38.232Z,7.89
2019-03-30T18:04:08.058Z,7.77
2019-03-30T18:06:37.802Z,7.50
2019-03-30T18:09:07.520Z,7.50
2019-03-30T18:11:37.144Z,7.53
2019-03-30T18:14:06.776Z,7.49
2019-03-30T18:16:36.605Z,7.61
2019-03-30T18:19:06.338Z,8.01
2019-03-30T18:21:37.908Z,7.95
2019-03-30T18:24:09.097Z,7.88
2019-03-30T18:26:38.854Z,7.91
2019-03-30T18:29:08.440Z,7.81
2019-03-30T18:31:39.973Z,7.89
2019-03-30T18:34:09.689Z,7.93
2019-03-30T18:36:40.070Z,7.98
2019-03-30T18:39:10.258Z,7.82
2019-03-30T18:41:39.995Z,7.83
2019-03-30T18:44:09.671Z,7.72
2019-03-30T18:46:39.301Z,7.64
2019-03-30T18:49:09.029Z,7.54
2019-03-30T18:51:39.586Z,7.49
2019-03-30T18:54:10.229Z,7.31
2019-03-30T18:56:39.962Z,7.18
2019-03-30T18:59:09.791Z,7.04
2019-03-30T19:01:39.414Z,6.92
2019-03-30T19:04:09.156Z,6.90
2019-03-30T19:06:39.197Z,6.77
2019-03-30T19:09:08.913Z,6.59
2019-03-30T19:11:38.604Z,6.70
2019-03-30T19:14:08.477Z,6.86
2019-03-30T19:16:38.113Z,6.76
2019-03-30T19:19:07.626Z,6.80
2019-03-30T19:21:37.258Z,6.74
2019-03-30T19:24:06.783Z,6.75
2019-03-30T19:26:36.441Z,6.68
2019-03-30T19:29:06.143Z,6.58
2019-03-30T19:31:35.779Z,6.47
2019-03-30T19:34:05.328Z,6.35
2019-03-30T19:36:34.922Z,6.27
2019-03-30T19:39:07.653Z,6.23
2019-03-30T19:41:37.352Z,6.25
2019-03-30T19:44:06.994Z,6.21
2019-03-30T19:46:36.602Z,6.04
2019-03-30T19:49:06.342Z,6.03
2019-03-30T19:51:36.773Z,6.02
2019-03-30T19:54:06.030Z,6.07
2019-03-30T19:56:35.605Z,6.12
2019-03-30T19:59:10.925Z,6.00
2019-03-30T20:01:37.881Z,6.07
2019-03-30T20:04:08.004Z,6.00
2019-03-30T20:06:37.723Z,5.90
2019-03-30T20:09:09.192Z,5.78
2019-03-30T20:11:40.418Z,5.70
2019-03-30T20:14:10.080Z,5.62
2019-03-30T20:16:42.171Z,5.71
2019-03-30T20:19:12.888Z,5.71
2019-03-30T20:21:42.369Z,5.76
2019-03-30T20:24:11.919Z,5.82
2019-03-30T20:26:41.946Z,5.83
2019-03-30T20:29:24.783Z,5.72
2019-03-30T20:31:43.923Z,5.70
2019-03-30T20:34:13.550Z,5.69
2019-03-30T20:36:43.384Z,5.61
2019-03-30T20:39:13.115Z,5.63
2019-03-30T20:41:42.945Z,5.63
2019-03-30T20:44:12.784Z,5.46
2019-03-30T20:46:43.792Z,5.32
2019-03-30T20:49:13.583Z,5.29
2019-03-30T20:51:44.441Z,5.18
2019-03-30T20:54:14.058Z,5.07
2019-03-30T20:56:43.686Z,5.05
2019-03-30T20:59:14.431Z,5.16
2019-03-30T21:01:44.170Z,5.07
2019-03-30T21:04:13.682Z,5.17
2019-03-30T21:06:43.318Z,5.18
2019-03-30T21:09:12.941Z,5.36
2019-03-30T21:11:42.673Z,5.51
2019-03-30T21:14:12.299Z,5.48
2019-03-30T21:16:41.937Z,5.51
2019-03-30T21:19:11.553Z,5.47
2019-03-30T21:21:41.287Z,5.42
2019-03-30T21:24:10.914Z,5.44
2019-03-30T21:26:40.353Z,5.37
2019-03-30T21:29:10.087Z,5.07
2019-03-30T21:31:39.797Z,4.89
2019-03-30T21:34:09.427Z,5.05
2019-03-30T21:36:40.282Z,5.04
2019-03-30T21:39:10.014Z,5.04
2019-03-30T21:41:39.841Z,5.05
2019-03-30T21:44:21.428Z,4.93
2019-03-30T21:46:40.735Z,4.88
2019-03-30T21:49:10.362Z,4.83
2019-03-30T21:51:39.989Z,4.75
2019-03-30T21:54:09.620Z,4.70
2019-03-30T21:56:39.249Z,4.66
2019-03-30T21:59:09.994Z,4.53
2019-03-30T22:01:39.734Z,4.55
2019-03-30T22:04:09.373Z,4.50
2019-03-30T22:06:38.886Z,4.52
2019-03-30T22:09:08.472Z,4.47
2019-03-30T22:11:38.137Z,4.32
2019-03-30T22:14:07.792Z,4.31
2019-03-30T22:16:37.285Z,4.17
2019-03-30T22:19:06.923Z,4.16
2019-03-30T22:21:36.507Z,4.28
2019-03-30T22:24:06.067Z,4.32
2019-03-30T22:26:35.704Z,4.32
2019-03-30T22:29:05.328Z,4.29
2019-03-30T22:31:35.056Z,4.17
2019-03-30T22:34:04.889Z,3.97
2019-03-30T22:36:34.483Z,3.89
2019-03-30T22:39:06.019Z,3.94
2019-03-30T22:41:35.720Z,4.06
2019-03-30T22:44:05.351Z,4.16
2019-03-30T22:46:35.202Z,4.20
2019-03-30T22:49:04.913Z,4.13
2019-03-30T22:51:34.644Z,4.02
2019-03-30T22:54:04.489Z,3.91
2019-03-30T22:56:35.220Z,3.95
2019-03-30T22:59:04.956Z,3.93
2019-03-30T23:01:34.784Z,3.75
2019-03-30T23:04:04.416Z,3.69
2019-03-30T23:06:34.059Z,3.61
2019-03-30T23:09:05.813Z,3.40
2019-03-30T23:11:35.951Z,3.30
2019-03-30T23:14:05.793Z,3.26
2019-03-30T23:16:35.567Z,3.16
2019-03-30T23:19:05.242Z,2.94
2019-03-30T23:21:35.795Z,2.74
2019-03-30T23:24:05.527Z,2.57
2019-03-30T23:26:35.148Z,2.45
2019-03-30T23:29:04.885Z,2.42
2019-03-30T23:31:34.615Z,2.37
2019-03-30T23:34:04.254Z,2.44
2019-03-30T23:36:33.983Z,2.46
2019-03-30T23:39:05.538Z,2.40
2019-03-30T23:41:35.174Z,2.34
2019-03-30T23:44:04.894Z,2.28
2019-03-30T23:46:34.493Z,2.15
2019-03-30T23:49:04.049Z,2.20
2019-03-30T23:51:33.682Z,2.28
2019-03-30T23:54:03.242Z,2.27
2019-03-30T23:56:32.835Z,2.16
2019-03-30T23:59:02.471Z,2.11
